Time;durP1;ratioP1;P1;durP2;ratioP2;P2;SDS_P1;SDS_P2;PMS_P1;PMS_P2;Temp;Humidity;BMP_temperature;BMP_pressure;BME280_temperature;BME280_humidity;BME280_pressure;Samples;Min_cycle;Max_cycle;Signal;HPM_P1;HPM_P2
2022/12/28 00:01:27;;;;;;;6.03;3.37;;;4.70;99.90;;;;;;5028663;28;20198;-66
2022/12/28 00:03:53;;;;;;;6.23;4.30;;;4.70;99.90;;;;;;5023170;28;20317;-67
2022/12/28 00:06:22;;;;;;;3.27;2.97;;;4.70;99.90;;;;;;5026687;28;20212;-66
2022/12/28 00:08:48;;;;;;;9.17;3.33;;;4.80;99.90;;;;;;5028048;28;20701;-67
2022/12/28 00:11:16;;;;;;;6.47;3.03;;;4.80;99.90;;;;;;5028165;28;20200;-66
2022/12/28 00:13:45;;;;;;;7.23;3.33;;;4.80;99.90;;;;;;5028169;28;20222;-67
2022/12/28 00:16:23;;;;;;;2.87;2.57;;;4.80;99.90;;;;;;5024587;28;20232;-66
2022/12/28 00:18:48;;;;;;;3.47;2.93;;;4.80;99.90;;;;;;5033577;28;20207;-66
2022/12/28 00:21:14;;;;;;;8.50;3.30;;;4.80;99.90;;;;;;5035611;28;20529;-66
2022/12/28 00:23:39;;;;;;;5.13;2.67;;;4.80;99.90;;;;;;5035892;28;20294;-66
2022/12/28 00:26:07;;;;;;;4.37;3.30;;;4.90;99.90;;;;;;5035420;28;20264;-66
2022/12/28 00:28:33;;;;;;;5.67;2.93;;;4.90;99.90;;;;;;5035763;28;20216;-72
2022/12/28 00:30:58;;;;;;;10.67;6.00;;;4.90;99.90;;;;;;5036224;28;20582;-74
2022/12/28 00:33:24;;;;;;;14.00;7.53;;;5.10;99.90;;;;;;5028376;28;20211;-68
2022/12/28 00:35:57;;;;;;;6.33;4.27;;;5.30;99.90;;;;;;5025458;28;20203;-68
2022/12/28 00:38:23;;;;;;;7.90;5.80;;;5.40;99.90;;;;;;5033244;28;20218;-69
2022/12/28 00:40:48;;;;;;;6.93;4.00;;;5.50;99.90;;;;;;5035620;28;20614;-69
2022/12/28 00:43:14;;;;;;;14.00;5.40;;;5.50;99.90;;;;;;5033873;28;20516;-68
2022/12/28 00:45:44;;;;;;;11.67;6.23;;;5.60;99.90;;;;;;5030973;28;20264;-69
2022/12/28 00:48:10;;;;;;;11.93;7.37;;;5.70;99.90;;;;;;5033019;28;20907;-67
2022/12/28 00:50:35;;;;;;;4.57;3.17;;;5.70;99.90;;;;;;5025325;28;20310;-68
2022/12/28 00:53:01;;;;;;;9.17;6.50;;;5.80;99.90;;;;;;5026446;28;20294;-69
2022/12/28 00:55:26;;;;;;;9.87;4.23;;;5.70;99.90;;;;;;5023315;28;20335;-69
2022/12/28 00:57:51;;;;;;;9.43;5.00;;;5.70;99.90;;;;;;5029583;28;20892;-75
2022/12/28 01:00:17;;;;;;;3.13;2.70;;;5.80;99.90;;;;;;5032588;28;20198;-73
2022/12/28 01:02:42;;;;;;;7.13;4.00;;;5.80;99.90;;;;;;5035296;28;20198;-77
2022/12/28 01:05:08;;;;;;;4.07;2.50;;;5.80;99.90;;;;;;5030803;28;20179;-69
2022/12/28 01:07:34;;;;;;;5.97;3.77;;;5.80;99.90;;;;;;5030508;28;20475;-68
2022/12/28 01:09:59;;;;;;;8.10;4.13;;;5.90;99.90;;;;;;5033923;28;20195;-69
2022/12/28 01:12:25;;;;;;;8.03;4.40;;;5.90;99.90;;;;;;5035566;28;20260;-69
2022/12/28 01:14:50;;;;;;;6.03;2.87;;;5.80;99.90;;;;;;5035472;28;20219;-63
2022/12/28 01:17:16;;;;;;;4.00;3.37;;;5.80;99.90;;;;;;5035669;28;20596;-64
2022/12/28 01:19:41;;;;;;;6.10;3.53;;;5.90;99.90;;;;;;5035176;28;20211;-65
2022/12/28 01:22:09;;;;;;;5.57;3.33;;;5.90;99.90;;;;;;5034883;28;20754;-71
2022/12/28 01:24:35;;;;;;;5.83;2.93;;;5.80;99.90;;;;;;5033439;28;20226;-69
2022/12/28 01:27:00;;;;;;;7.80;4.40;;;5.80;99.90;;;;;;5024010;28;20218;-71
2022/12/28 01:29:26;;;;;;;5.60;2.80;;;5.90;99.90;;;;;;5028447;28;20214;-63
2022/12/28 01:31:51;;;;;;;8.13;3.13;;;6.00;99.90;;;;;;5036184;28;20199;-65
2022/12/28 01:34:17;;;;;;;6.30;2.70;;;6.00;99.90;;;;;;5025283;28;20696;-63
2022/12/28 01:36:42;;;;;;;3.73;3.03;;;5.90;99.90;;;;;;5021364;28;20214;-63
2022/12/28 01:39:10;;;;;;;7.03;2.93;;;5.90;99.90;;;;;;5023812;28;20222;-64
2022/12/28 01:41:38;;;;;;;3.87;2.33;;;5.80;99.90;;;;;;5024423;28;20715;-64
2022/12/28 01:44:03;;;;;;;4.47;2.33;;;5.80;99.90;;;;;;5025075;28;20207;-64
2022/12/28 01:46:44;;;;;;;14.37;3.47;;;5.80;99.90;;;;;;5025276;28;20579;-64
2022/12/28 01:49:27;;;;;;;6.33;2.33;;;5.80;99.90;;;;;;5028559;28;21280;-64
2022/12/28 01:52:14;;;;;;;6.90;2.20;;;5.80;99.90;;;;;;5026526;28;20289;-62
2022/12/28 01:54:55;;;;;;;6.60;2.93;;;5.80;99.90;;;;;;5025714;28;20265;-64
2022/12/28 01:57:28;;;;;;;9.57;2.83;;;5.90;99.90;;;;;;5026348;28;20284;-65
2022/12/28 02:00:00;;;;;;;3.80;2.43;;;5.90;99.90;;;;;;5039038;28;20226;-64
2022/12/28 02:02:27;;;;;;;4.00;2.30;;;5.80;99.90;;;;;;5034218;28;20740;-65
2022/12/28 02:04:53;;;;;;;8.50;3.43;;;5.70;99.90;;;;;;5038549;28;20199;-66
2022/12/28 02:07:35;;;;;;;8.00;2.53;;;5.70;99.90;;;;;;5027890;28;20534;-67
2022/12/28 02:10:01;;;;;;;7.10;2.60;;;5.60;99.90;;;;;;5031996;28;20257;-74
2022/12/28 02:12:27;;;;;;;5.60;2.50;;;5.50;99.90;;;;;;5028778;28;20222;-71
2022/12/28 02:14:52;;;;;;;6.33;2.30;;;5.50;99.90;;;;;;5027890;28;20215;-73
2022/12/28 02:17:18;;;;;;;4.47;2.93;;;5.50;99.90;;;;;;5024119;28;20201;-71
2022/12/28 02:19:46;;;;;;;6.47;3.07;;;5.30;99.90;;;;;;5017519;28;20222;-70
2022/12/28 02:22:49;;;;;;;4.07;2.30;;;5.30;99.90;;;;;;5029314;28;20199;-68
2022/12/28 02:25:48;;;;;;;4.77;2.67;;;5.20;99.90;;;;;;5038325;28;20230;-69
2022/12/28 02:28:27;;;;;;;9.90;2.90;;;5.00;99.90;;;;;;5033594;28;20209;-75
2022/12/28 02:31:06;;;;;;;4.67;2.97;;;5.00;99.90;;;;;;5037643;28;20214;-76
2022/12/28 02:33:41;;;;;;;5.03;2.57;;;4.90;99.90;;;;;;5025083;28;20346;-76
2022/12/28 02:36:22;;;;;;;5.90;2.67;;;4.90;99.90;;;;;;5024849;28;20202;-76
2022/12/28 02:38:56;;;;;;;6.17;2.43;;;4.80;99.90;;;;;;5028933;28;20191;-76
2022/12/28 02:41:24;;;;;;;4.40;2.93;;;4.80;99.90;;;;;;5028098;28;20195;-74
2022/12/28 02:43:51;;;;;;;5.17;2.93;;;4.80;99.90;;;;;;5028138;28;20861;-77
2022/12/28 02:52:20;;;;;;;5.90;3.00;;;4.70;99.90;;;;;;5023446;28;20213;-77
2022/12/28 02:58:07;;;;;;;7.37;3.10;;;4.70;99.90;;;;;;5027453;28;20249;-69
2022/12/28 03:00:56;;;;;;;7.03;3.03;;;4.70;99.90;;;;;;5022097;28;20665;-74
2022/12/28 03:03:41;;;;;;;7.37;3.27;;;4.70;99.90;;;;;;5025706;28;20710;-74
2022/12/28 03:09:04;;;;;;;4.03;2.70;;;4.60;99.90;;;;;;5034196;28;20228;-76
2022/12/28 03:12:00;;;;;;;5.53;2.90;;;4.60;99.90;;;;;;5036639;28;20207;-77
2022/12/28 03:14:31;;;;;;;2.80;2.60;;;4.60;99.90;;;;;;5023488;28;20226;-76
2022/12/28 03:31:07;;;;;;;3.90;3.23;;;4.90;99.90;;;;;;5035704;28;20253;-68
2022/12/28 03:33:44;;;;;;;6.90;3.23;;;5.00;99.90;;;;;;5031129;28;20221;-72
2022/12/28 03:36:13;;;;;;;4.90;3.07;;;5.10;99.90;;;;;;5037843;28;20802;-70
2022/12/28 03:39:03;;;;;;;5.83;3.30;;;5.00;99.90;;;;;;5024664;28;20311;-68
2022/12/28 03:41:37;;;;;;;3.40;3.13;;;5.10;99.90;;;;;;5022145;28;20207;-68
2022/12/28 03:44:19;;;;;;;6.37;2.90;;;5.10;99.90;;;;;;5024569;28;20690;-68
2022/12/28 03:46:54;;;;;;;4.30;3.40;;;5.00;99.90;;;;;;5028646;28;20206;-69
2022/12/28 03:49:22;;;;;;;3.17;2.87;;;5.00;99.90;;;;;;5025835;28;20209;-66
2022/12/28 03:51:49;;;;;;;6.37;3.40;;;5.00;99.90;;;;;;5026388;28;20222;-65
2022/12/28 03:54:16;;;;;;;4.77;3.23;;;4.90;99.90;;;;;;5027452;28;20268;-65
2022/12/28 03:56:49;;;;;;;3.37;3.07;;;4.80;99.90;;;;;;5025423;28;20205;-66
2022/12/28 03:59:16;;;;;;;7.17;3.30;;;4.80;99.90;;;;;;5025492;28;20207;-65
2022/12/28 04:01:42;;;;;;;6.20;2.90;;;4.70;99.90;;;;;;5028376;28;20226;-66
2022/12/28 04:04:07;;;;;;;6.07;3.00;;;4.60;99.90;;;;;;5032176;28;20229;-65
2022/12/28 04:06:33;;;;;;;6.93;3.50;;;4.60;99.90;;;;;;5024994;28;20226;-65
2022/12/28 04:08:59;;;;;;;4.37;2.53;;;4.50;99.90;;;;;;5026880;28;20620;-66
2022/12/28 04:11:24;;;;;;;3.90;2.90;;;4.50;99.90;;;;;;5025348;28;20222;-66
2022/12/28 04:13:50;;;;;;;8.87;2.60;;;4.40;99.90;;;;;;5027414;28;20688;-65
2022/12/28 04:16:15;;;;;;;4.03;2.50;;;4.40;99.90;;;;;;5028686;28;20198;-66
2022/12/28 04:18:41;;;;;;;5.73;3.07;;;4.40;99.90;;;;;;5024035;28;20287;-65
2022/12/28 04:21:08;;;;;;;4.67;3.07;;;4.30;99.90;;;;;;5028271;28;20263;-65
2022/12/28 04:23:34;;;;;;;5.67;3.20;;;4.30;99.90;;;;;;5024487;28;20198;-65
2022/12/28 04:26:11;;;;;;;3.80;2.03;;;4.20;99.90;;;;;;5027986;28;20237;-65
2022/12/28 04:28:37;;;;;;;4.20;2.37;;;4.30;99.90;;;;;;5028363;28;20202;-65
2022/12/28 04:31:05;;;;;;;4.37;3.00;;;4.30;99.90;;;;;;5025761;28;20285;-66
2022/12/28 04:33:32;;;;;;;2.77;2.33;;;4.30;99.90;;;;;;5026096;28;20215;-65
2022/12/28 04:36:05;;;;;;;3.27;2.77;;;4.30;99.90;;;;;;5028569;28;20205;-66
2022/12/28 04:38:31;;;;;;;7.20;2.63;;;4.30;99.90;;;;;;5025897;28;20198;-62
2022/12/28 04:40:57;;;;;;;3.67;2.20;;;4.30;99.90;;;;;;5024581;28;20249;-63
2022/12/28 04:43:22;;;;;;;5.03;2.30;;;4.20;99.90;;;;;;5024823;28;20205;-62
2022/12/28 04:46:02;;;;;;;3.63;2.43;;;4.20;99.90;;;;;;5034892;28;20685;-71
2022/12/28 04:48:28;;;;;;;3.10;2.40;;;4.20;99.90;;;;;;5032144;28;20202;-62
2022/12/28 04:50:54;;;;;;;4.90;3.07;;;4.40;99.90;;;;;;5024515;28;20279;-61
2022/12/28 04:53:20;;;;;;;5.40;2.50;;;4.40;99.90;;;;;;5027505;28;20285;-61
2022/12/28 04:55:46;;;;;;;3.87;2.43;;;4.40;99.90;;;;;;5026251;28;20209;-61
2022/12/28 04:58:12;;;;;;;7.07;2.53;;;4.40;99.90;;;;;;5028546;28;20198;-61
2022/12/28 05:00:37;;;;;;;3.73;2.07;;;4.30;99.90;;;;;;5026706;28;20272;-61
2022/12/28 05:03:03;;;;;;;4.50;2.23;;;4.30;99.90;;;;;;5026764;28;20202;-62
2022/12/28 05:05:29;;;;;;;7.27;2.57;;;4.30;99.90;;;;;;5026287;28;20217;-61
2022/12/28 05:07:55;;;;;;;2.67;2.10;;;4.30;99.90;;;;;;5041436;28;20289;-61
2022/12/28 05:10:20;;;;;;;3.80;2.00;;;4.30;99.90;;;;;;5036873;28;20887;-61
2022/12/28 05:12:46;;;;;;;2.30;1.97;;;4.20;99.90;;;;;;5034979;28;20622;-63
2022/12/28 05:15:11;;;;;;;5.10;2.23;;;4.30;99.90;;;;;;5041234;28;20194;-61
2022/12/28 05:17:37;;;;;;;4.93;2.03;;;4.20;99.90;;;;;;5038785;28;20194;-62
2022/12/28 05:20:03;;;;;;;6.40;2.30;;;4.30;99.90;;;;;;5041848;28;20206;-63
2022/12/28 05:22:29;;;;;;;4.13;2.10;;;4.30;99.90;;;;;;5041883;28;20210;-62
2022/12/28 05:24:54;;;;;;;3.43;2.20;;;4.30;99.90;;;;;;5048034;28;20316;-64
2022/12/28 05:27:20;;;;;;;3.53;1.97;;;4.30;99.90;;;;;;5048387;28;20265;-62
2022/12/28 05:29:45;;;;;;;3.73;2.10;;;4.30;99.90;;;;;;5045348;28;20218;-62
2022/12/28 05:32:11;;;;;;;2.77;1.87;;;4.30;99.90;;;;;;5042902;28;20202;-62
2022/12/28 05:34:36;;;;;;;4.27;2.20;;;4.30;99.90;;;;;;5046842;28;20222;-62
2022/12/28 05:37:02;;;;;;;7.63;1.93;;;4.30;99.90;;;;;;5046385;28;20596;-62
2022/12/28 05:39:28;;;;;;;8.83;2.23;;;4.30;99.90;;;;;;5046022;28;20203;-62
2022/12/28 05:41:53;;;;;;;3.13;1.77;;;4.40;99.90;;;;;;5048532;28;20194;-62
2022/12/28 05:44:19;;;;;;;1.97;1.83;;;4.40;99.90;;;;;;5046710;28;20205;-63
2022/12/28 05:46:45;;;;;;;3.43;2.37;;;4.40;99.90;;;;;;5045047;28;20285;-63
2022/12/28 05:49:10;;;;;;;1.67;1.57;;;4.40;99.90;;;;;;5041669;28;20283;-63
2022/12/28 05:51:36;;;;;;;1.50;1.40;;;4.40;99.90;;;;;;5042813;28;20794;-61
2022/12/28 05:54:05;;;;;;;1.93;1.70;;;4.40;99.90;;;;;;5030146;28;20214;-62
2022/12/28 05:56:31;;;;;;;1.57;1.47;;;4.40;99.90;;;;;;5026711;28;20211;-61
2022/12/28 05:59:03;;;;;;;1.93;1.73;;;4.40;99.90;;;;;;5030850;28;20198;-62
2022/12/28 06:01:34;;;;;;;7.90;1.80;;;4.40;99.90;;;;;;5026876;28;20199;-62
2022/12/28 06:04:09;;;;;;;4.57;1.73;;;4.40;99.90;;;;;;5037274;28;20211;-62
2022/12/28 06:06:35;;;;;;;2.23;1.73;;;4.40;99.90;;;;;;5039144;28;20198;-63
2022/12/28 06:09:01;;;;;;;3.40;1.90;;;4.40;99.90;;;;;;5038889;28;20281;-63
2022/12/28 06:11:28;;;;;;;2.33;1.80;;;4.40;99.90;;;;;;5038963;28;20620;-63
2022/12/28 06:13:54;;;;;;;4.70;2.07;;;4.40;99.90;;;;;;5038266;28;20780;-62
2022/12/28 06:16:22;;;;;;;1.50;1.40;;;4.40;99.90;;;;;;5037249;28;20201;-62
2022/12/28 06:18:48;;;;;;;4.17;1.70;;;4.50;99.90;;;;;;5039089;28;20225;-63
2022/12/28 06:21:29;;;;;;;3.67;2.17;;;4.50;99.90;;;;;;5038574;28;20202;-62
2022/12/28 06:23:56;;;;;;;2.23;1.57;;;4.60;99.90;;;;;;5037019;28;20198;-64
2022/12/28 06:26:22;;;;;;;2.83;1.83;;;4.60;99.90;;;;;;5038790;28;20210;-63
2022/12/28 06:28:49;;;;;;;2.27;1.80;;;4.60;99.90;;;;;;5038610;28;20623;-61
2022/12/28 06:31:20;;;;;;;5.83;2.00;;;4.60;99.90;;;;;;5037093;28;20202;-61
2022/12/28 06:33:47;;;;;;;4.67;1.83;;;4.60;99.90;;;;;;5036065;28;20223;-62
2022/12/28 06:36:19;;;;;;;2.20;1.77;;;4.70;99.90;;;;;;5038263;28;20191;-63
2022/12/28 06:38:45;;;;;;;2.53;1.43;;;4.70;99.90;;;;;;5035134;28;20195;-62
2022/12/28 06:41:12;;;;;;;5.53;2.33;;;4.70;99.90;;;;;;5028692;28;20201;-62
2022/12/28 06:43:39;;;;;;;3.07;1.57;;;4.70;99.90;;;;;;5035918;28;20249;-60
2022/12/28 06:46:05;;;;;;;5.23;1.70;;;4.80;99.90;;;;;;5037990;28;20205;-62
2022/12/28 06:48:32;;;;;;;4.40;1.80;;;4.70;99.90;;;;;;5037741;28;20193;-67
2022/12/28 06:51:00;;;;;;;3.77;1.90;;;4.70;99.90;;;;;;5038102;28;20194;-62
2022/12/28 06:53:28;;;;;;;6.73;2.83;;;4.70;99.90;;;;;;5038103;28;20305;-61
2022/12/28 06:55:57;;;;;;;5.33;2.13;;;4.70;99.90;;;;;;5035620;28;20213;-61
2022/12/28 06:58:27;;;;;;;4.50;1.97;;;4.60;99.90;;;;;;5038083;28;20223;-62
2022/12/28 07:00:54;;;;;;;4.00;2.53;;;4.60;99.90;;;;;;5032177;28;20209;-62
2022/12/28 07:03:20;;;;;;;3.10;2.33;;;4.60;99.90;;;;;;5037079;28;20710;-61
2022/12/28 07:05:46;;;;;;;4.13;2.30;;;4.60;99.90;;;;;;5032666;28;20207;-62
2022/12/28 07:08:12;;;;;;;4.07;1.83;;;4.60;99.90;;;;;;5037348;28;20208;-62
2022/12/28 07:10:37;;;;;;;4.40;2.37;;;4.60;99.90;;;;;;5037867;28;20305;-62
2022/12/28 07:13:04;;;;;;;4.40;1.77;;;4.60;99.90;;;;;;5028419;28;20561;-62
2022/12/28 07:15:29;;;;;;;4.63;1.93;;;4.60;99.90;;;;;;5033053;28;20312;-62
2022/12/28 07:17:55;;;;;;;5.13;2.00;;;4.60;99.90;;;;;;5035597;28;20290;-63
2022/12/28 07:20:20;;;;;;;3.73;1.83;;;4.60;99.90;;;;;;5037505;28;20203;-61
2022/12/28 07:22:46;;;;;;;3.33;2.10;;;4.60;99.90;;;;;;5037652;28;20203;-61
2022/12/28 07:25:11;;;;;;;3.93;2.30;;;4.60;99.90;;;;;;5037307;28;20226;-61
2022/12/28 07:27:37;;;;;;;6.27;2.50;;;4.60;99.90;;;;;;5029446;28;20204;-62
2022/12/28 07:30:03;;;;;;;3.50;2.40;;;4.60;99.90;;;;;;5027194;28;20210;-62
2022/12/28 07:32:28;;;;;;;5.77;2.60;;;4.70;99.90;;;;;;5025979;28;20210;-63
2022/12/28 07:34:54;;;;;;;5.13;2.60;;;4.70;99.90;;;;;;5027485;28;20227;-62
2022/12/28 07:37:19;;;;;;;5.37;2.23;;;4.80;99.90;;;;;;5027815;28;20200;-63
2022/12/28 07:39:45;;;;;;;4.80;1.90;;;4.80;99.90;;;;;;5035687;28;20325;-62
2022/12/28 07:42:11;;;;;;;4.03;1.83;;;4.80;99.90;;;;;;5028276;28;20198;-61
2022/12/28 07:44:40;;;;;;;2.40;1.90;;;4.80;99.90;;;;;;5025423;28;20195;-62
2022/12/28 07:47:06;;;;;;;2.87;2.03;;;4.90;99.90;;;;;;5032016;28;20207;-62
2022/12/28 07:49:32;;;;;;;3.37;2.20;;;4.90;99.90;;;;;;5037099;28;20750;-62
2022/12/28 07:51:57;;;;;;;6.13;2.10;;;4.90;99.90;;;;;;5029440;28;20222;-62
2022/12/28 07:54:23;;;;;;;2.83;1.67;;;4.90;99.90;;;;;;5026980;28;20361;-62
2022/12/28 07:56:48;;;;;;;5.13;2.30;;;4.90;99.90;;;;;;5026834;28;20557;-62
2022/12/28 07:59:14;;;;;;;2.70;2.23;;;4.90;99.90;;;;;;5025390;28;20213;-61
2022/12/28 08:01:39;;;;;;;5.27;2.60;;;4.90;99.90;;;;;;5027136;28;20698;-61
2022/12/28 08:04:08;;;;;;;3.73;2.50;;;5.00;99.90;;;;;;5027952;28;20210;-61
2022/12/28 08:06:36;;;;;;;2.03;1.60;;;5.00;99.90;;;;;;5028971;28;20210;-62
2022/12/28 08:09:04;;;;;;;6.10;2.70;;;5.00;99.90;;;;;;5034565;28;20202;-62
2022/12/28 08:11:32;;;;;;;7.10;2.60;;;5.00;99.90;;;;;;5036688;28;20214;-62
2022/12/28 08:13:58;;;;;;;4.20;2.40;;;5.00;99.90;;;;;;5032124;28;20223;-62
2022/12/28 08:16:25;;;;;;;3.10;2.20;;;5.00;99.90;;;;;;5036617;28;20202;-62
2022/12/28 08:18:51;;;;;;;4.03;2.57;;;5.00;99.90;;;;;;5036594;28;20203;-62
2022/12/28 08:21:19;;;;;;;2.43;2.33;;;5.10;99.90;;;;;;5034340;28;20256;-62
2022/12/28 08:23:45;;;;;;;2.63;2.17;;;5.10;99.90;;;;;;5036502;28;20206;-61
2022/12/28 08:26:23;;;;;;;3.30;2.60;;;5.20;99.90;;;;;;5036260;28;20586;-63
2022/12/28 08:28:51;;;;;;;2.40;2.20;;;5.20;99.90;;;;;;5034429;28;20228;-62
2022/12/28 08:31:20;;;;;;;5.70;2.50;;;5.30;99.90;;;;;;5036122;28;20592;-61
2022/12/28 08:33:46;;;;;;;4.47;2.57;;;5.30;99.90;;;;;;5035397;28;21126;-62
2022/12/28 08:36:12;;;;;;;7.50;3.03;;;5.30;99.90;;;;;;5035657;28;20199;-62
2022/12/28 08:38:40;;;;;;;3.33;2.60;;;5.40;99.90;;;;;;5024248;28;20210;-62
2022/12/28 08:41:07;;;;;;;7.20;2.90;;;5.40;99.90;;;;;;5026311;28;20352;-64
2022/12/28 08:43:33;;;;;;;4.87;2.47;;;5.50;99.90;;;;;;5031688;28;20692;-61
2022/12/28 08:46:11;;;;;;;7.30;2.93;;;5.50;99.90;;;;;;5036207;28;20218;-63
2022/12/28 08:48:36;;;;;;;5.37;2.70;;;5.60;99.90;;;;;;5027129;28;20260;-62
2022/12/28 08:51:05;;;;;;;4.13;3.13;;;5.70;99.90;;;;;;5035861;28;20677;-62
2022/12/28 08:53:31;;;;;;;2.87;2.03;;;5.70;99.90;;;;;;5031437;28;20234;-63
2022/12/28 08:56:11;;;;;;;3.03;1.87;;;5.80;99.90;;;;;;5036555;28;20206;-63
2022/12/28 08:58:39;;;;;;;2.93;2.53;;;5.70;99.90;;;;;;5038260;28;20802;-62
2022/12/28 09:01:18;;;;;;;3.77;2.10;;;5.80;99.90;;;;;;5040222;28;20206;-62
2022/12/28 09:03:45;;;;;;;3.23;2.57;;;5.90;99.90;;;;;;5038543;28;20206;-62
2022/12/28 09:06:13;;;;;;;4.03;2.03;;;5.90;99.90;;;;;;5040177;28;20213;-61
2022/12/28 09:08:39;;;;;;;4.67;2.57;;;5.90;99.90;;;;;;5038225;28;20270;-62
2022/12/28 09:11:07;;;;;;;4.17;2.73;;;5.90;99.90;;;;;;5026963;28;20291;-63
2022/12/28 09:13:33;;;;;;;4.13;2.53;;;6.00;99.90;;;;;;5027962;28;20673;-63
2022/12/28 09:16:02;;;;;;;3.10;2.20;;;6.00;99.90;;;;;;5031017;28;20269;-62
2022/12/28 09:18:27;;;;;;;5.47;3.27;;;6.00;99.90;;;;;;5031095;28;20203;-63
2022/12/28 09:20:53;;;;;;;7.23;3.17;;;6.00;99.90;;;;;;5030132;28;20268;-62
2022/12/28 09:23:19;;;;;;;4.03;2.57;;;6.10;99.90;;;;;;5030410;28;20222;-61
2022/12/28 09:25:45;;;;;;;4.63;2.37;;;6.10;99.90;;;;;;5029938;28;20590;-63
2022/12/28 09:28:10;;;;;;;3.60;2.37;;;6.20;99.90;;;;;;5029634;28;20206;-62
2022/12/28 09:30:36;;;;;;;4.90;2.17;;;6.20;99.90;;;;;;5030673;28;20207;-61
2022/12/28 09:35:46;;;;;;;5.20;2.10;;;6.20;99.90;;;;;;5039267;28;20672;-61
2022/12/28 09:38:11;;;;;;;2.47;1.90;;;6.20;99.90;;;;;;5039150;28;20194;-63
2022/12/28 09:40:37;;;;;;;3.17;2.33;;;6.20;99.90;;;;;;5039749;28;20210;-62
2022/12/28 09:43:04;;;;;;;4.37;2.63;;;6.30;99.90;;;;;;5033355;28;20676;-63
2022/12/28 09:45:31;;;;;;;3.23;2.37;;;6.40;99.90;;;;;;5029356;28;20686;-63
2022/12/28 09:48:03;;;;;;;5.73;2.27;;;6.50;99.90;;;;;;5024428;28;20695;-63
2022/12/28 09:50:31;;;;;;;3.13;1.93;;;6.50;99.90;;;;;;5028697;28;20694;-63
2022/12/28 09:53:05;;;;;;;3.23;2.10;;;6.50;99.90;;;;;;5033057;28;20203;-63
2022/12/28 09:55:37;;;;;;;2.50;1.90;;;6.60;99.90;;;;;;5034583;28;20206;-64
2022/12/28 09:58:04;;;;;;;3.50;2.07;;;6.60;99.90;;;;;;5037674;28;20209;-63
2022/12/28 10:00:51;;;;;;;2.60;2.10;;;6.70;99.90;;;;;;5030041;28;20206;-63
2022/12/28 10:03:25;;;;;;;3.50;2.43;;;6.70;99.90;;;;;;5031363;28;20202;-62
2022/12/28 10:05:52;;;;;;;4.30;2.07;;;6.80;99.90;;;;;;5035394;28;20193;-63
2022/12/28 10:08:21;;;;;;;4.90;2.20;;;6.80;99.90;;;;;;5032795;28;20690;-63
2022/12/28 10:10:47;;;;;;;3.40;1.93;;;6.80;99.90;;;;;;5038750;28;20298;-63
2022/12/28 10:13:20;;;;;;;3.40;2.10;;;6.90;99.90;;;;;;5038631;28;20684;-62
2022/12/28 10:15:46;;;;;;;3.47;2.70;;;6.90;99.90;;;;;;5027895;28;20211;-63
2022/12/28 10:18:14;;;;;;;2.47;2.10;;;6.90;99.90;;;;;;5028546;28;20558;-63
2022/12/28 10:20:42;;;;;;;4.20;2.37;;;7.00;99.90;;;;;;5031464;28;20544;-62
2022/12/28 10:23:13;;;;;;;2.50;2.30;;;7.00;99.90;;;;;;5037845;28;20352;-63
2022/12/28 10:25:38;;;;;;;2.87;2.23;;;7.10;99.90;;;;;;5034574;28;20721;-63
2022/12/28 10:28:08;;;;;;;2.30;2.13;;;7.10;99.90;;;;;;5025259;28;20211;-59
2022/12/28 10:30:47;;;;;;;1.80;1.50;;;7.10;99.90;;;;;;5038411;28;20209;-62
2022/12/28 10:33:18;;;;;;;6.40;2.00;;;7.10;99.90;;;;;;5038714;28;20202;-62
2022/12/28 10:35:52;;;;;;;4.70;2.00;;;7.10;99.90;;;;;;5035848;28;20210;-62
2022/12/28 10:38:24;;;;;;;2.73;2.43;;;7.10;99.90;;;;;;5022700;28;20218;-63
2022/12/28 10:40:58;;;;;;;4.40;2.33;;;7.10;99.90;;;;;;5029119;28;20750;-63
2022/12/28 10:43:27;;;;;;;7.13;2.47;;;7.10;99.90;;;;;;5033345;28;20214;-63
2022/12/28 10:45:53;;;;;;;2.70;2.17;;;7.20;99.90;;;;;;5038392;28;20199;-62
2022/12/28 10:48:26;;;;;;;3.17;2.10;;;7.20;99.90;;;;;;5038263;28;20205;-62
2022/12/28 10:51:13;;;;;;;3.23;2.00;;;7.20;99.90;;;;;;5037968;28;20987;-62
2022/12/28 10:53:38;;;;;;;2.33;1.80;;;7.30;99.90;;;;;;5038291;28;20684;-62
2022/12/28 10:56:12;;;;;;;2.07;1.83;;;7.40;99.90;;;;;;5038311;28;21042;-62
2022/12/28 10:58:40;;;;;;;2.77;2.17;;;7.40;99.90;;;;;;5030453;28;20244;-62
2022/12/28 11:01:32;;;;;;;8.80;5.33;;;7.40;99.90;;;;;;5037115;28;20203;-62
2022/12/28 11:04:07;;;;;;;6.87;3.00;;;7.50;99.90;;;;;;5038038;28;20210;-63
2022/12/28 11:06:35;;;;;;;4.80;2.10;;;7.60;99.90;;;;;;5037415;28;20202;-63
2022/12/28 11:09:15;;;;;;;2.97;2.07;;;7.70;99.90;;;;;;5035620;28;20205;-63
2022/12/28 11:11:43;;;;;;;2.93;1.70;;;7.80;99.90;;;;;;5038005;28;20211;-63
2022/12/28 11:14:36;;;;;;;2.00;1.80;;;7.90;99.90;;;;;;5024682;28;20226;-63
2022/12/28 11:17:25;;;;;;;2.37;1.63;;;7.90;99.90;;;;;;5031351;28;20199;-63
2022/12/28 11:20:14;;;;;;;1.70;1.60;;;7.90;99.90;;;;;;5036944;28;20675;-63
2022/12/28 11:22:40;;;;;;;1.60;1.47;;;7.90;99.90;;;;;;5037569;28;20770;-62
2022/12/28 11:25:06;;;;;;;2.20;1.50;;;7.80;99.90;;;;;;5034140;28;20664;-63
2022/12/28 11:27:33;;;;;;;2.17;1.60;;;7.80;99.90;;;;;;5036607;28;20270;-62
2022/12/28 11:29:59;;;;;;;2.03;1.70;;;7.80;99.90;;;;;;5034674;28;20204;-62
2022/12/28 11:32:31;;;;;;;1.67;1.57;;;7.80;99.90;;;;;;5037627;28;21053;-61
2022/12/28 11:34:57;;;;;;;2.00;1.90;;;7.90;99.90;;;;;;5036893;28;20400;-62
2022/12/28 11:37:22;;;;;;;2.70;2.17;;;7.90;99.90;;;;;;5037451;28;20229;-61
2022/12/28 11:39:50;;;;;;;1.47;1.37;;;7.90;99.90;;;;;;5037384;28;20635;-62
2022/12/28 11:42:30;;;;;;;1.77;1.30;;;7.90;99.90;;;;;;5037107;28;20195;-62
2022/12/28 11:44:56;;;;;;;4.93;1.93;;;7.90;99.90;;;;;;5036820;28;20714;-62
2022/12/28 11:47:34;;;;;;;2.10;1.70;;;8.00;99.90;;;;;;5035048;28;20203;-61
2022/12/28 11:50:35;;;;;;;3.17;1.40;;;8.10;99.90;;;;;;5032424;28;20353;-61
2022/12/28 11:53:02;;;;;;;1.80;1.70;;;8.20;99.90;;;;;;5037132;28;20251;-62
2022/12/28 11:55:54;;;;;;;1.47;1.20;;;8.20;99.90;;;;;;5034346;28;20253;-62
2022/12/28 11:58:41;;;;;;;2.07;1.70;;;8.30;99.90;;;;;;5035087;28;20198;-62
2022/12/28 12:01:29;;;;;;;1.67;1.57;;;8.30;99.90;;;;;;5017997;28;20199;-62
2022/12/28 12:03:58;;;;;;;1.37;1.30;;;8.30;99.90;;;;;;5036749;28;20232;-65
2022/12/28 12:06:42;;;;;;;1.53;1.43;;;8.30;99.90;;;;;;5036704;28;20199;-61
2022/12/28 12:09:37;;;;;;;1.70;1.60;;;8.30;99.90;;;;;;5036561;28;20710;-63
2022/12/28 12:12:22;;;;;;;1.70;1.60;;;8.30;99.90;;;;;;5036676;28;20198;-63
2022/12/28 12:14:55;;;;;;;3.60;1.60;;;8.40;99.90;;;;;;5035251;28;20214;-63
2022/12/28 12:17:43;;;;;;;1.80;1.30;;;8.30;99.90;;;;;;5024920;28;20257;-60
2022/12/28 12:20:41;;;;;;;1.60;1.50;;;8.30;99.90;;;;;;5029952;28;20211;-65
2022/12/28 12:23:45;;;;;;;2.23;1.80;;;8.30;99.90;;;;;;5024247;28;20728;-65
2022/12/28 12:26:38;;;;;;;2.30;1.73;;;8.50;99.90;;;;;;5024708;28;20211;-65
2022/12/28 12:29:41;;;;;;;2.07;1.67;;;9.10;99.90;;;;;;5030328;28;20703;-64
2022/12/28 12:32:16;;;;;;;1.03;1.03;;;9.70;99.90;;;;;;5035193;28;20209;-64
2022/12/28 12:34:52;;;;;;;2.67;2.10;;;10.10;99.90;;;;;;5038215;28;20300;-65
2022/12/28 12:37:44;;;;;;;1.50;1.33;;;10.40;99.90;;;;;;5037037;28;20728;-64
2022/12/28 12:40:44;;;;;;;2.60;1.43;;;10.30;99.90;;;;;;5039095;28;20761;-71
2022/12/28 12:43:43;;;;;;;3.00;1.60;;;9.90;99.90;;;;;;5034212;28;20268;-72
2022/12/28 12:46:40;;;;;;;2.43;1.50;;;9.60;99.90;;;;;;5027912;28;20198;-70
2022/12/28 12:49:32;;;;;;;2.57;2.33;;;9.40;99.90;;;;;;5041191;28;20691;-65
2022/12/28 12:52:27;;;;;;;7.00;3.67;;;9.30;99.90;;;;;;5021928;28;20218;-65
2022/12/28 12:55:18;;;;;;;2.20;1.70;;;9.30;99.90;;;;;;5043400;28;20248;-65
2022/12/28 12:58:05;;;;;;;2.53;2.33;;;9.40;99.90;;;;;;5032911;28;20692;-66
2022/12/28 13:01:11;;;;;;;5.33;2.30;;;9.50;99.90;;;;;;5040723;28;20203;-65
2022/12/28 13:03:48;;;;;;;2.33;1.60;;;9.60;99.90;;;;;;5042112;28;20833;-67
2022/12/28 13:06:21;;;;;;;4.10;2.13;;;9.50;99.90;;;;;;5043577;28;20625;-66
2022/12/28 13:08:51;;;;;;;1.63;1.53;;;9.50;99.90;;;;;;5036711;28;20225;-66
2022/12/28 13:11:18;;;;;;;1.47;1.37;;;9.50;99.90;;;;;;5035062;28;20217;-66
2022/12/28 13:13:47;;;;;;;2.20;1.80;;;9.40;99.90;;;;;;5035799;28;20268;-65
2022/12/28 13:16:22;;;;;;;2.13;1.50;;;9.40;99.90;;;;;;5030125;28;20194;-65
2022/12/28 13:18:58;;;;;;;1.40;1.30;;;9.40;99.90;;;;;;5035124;28;20237;-66
2022/12/28 13:21:29;;;;;;;3.47;1.63;;;9.30;99.90;;;;;;5033431;28;20206;-66
2022/12/28 13:23:54;;;;;;;2.50;1.83;;;9.30;99.90;;;;;;5035286;28;20293;-66
2022/12/28 13:26:26;;;;;;;1.73;1.53;;;9.20;99.90;;;;;;5035300;28;20290;-81
2022/12/28 13:29:01;;;;;;;4.27;1.57;;;9.30;99.90;;;;;;5035777;28;20221;-57
2022/12/28 13:31:36;;;;;;;1.50;1.40;;;9.50;99.90;;;;;;5042587;28;20623;-58
2022/12/28 13:34:04;;;;;;;2.03;1.80;;;9.90;99.90;;;;;;5026209;28;20299;-60
2022/12/28 13:36:30;;;;;;;3.77;1.93;;;10.10;99.90;;;;;;5031930;28;20225;-58
2022/12/28 13:39:12;;;;;;;2.50;1.50;;;10.10;99.90;;;;;;5026457;28;20672;-57
2022/12/28 13:41:48;;;;;;;4.53;1.80;;;10.10;99.90;;;;;;5022139;28;20988;-58
2022/12/28 13:44:23;;;;;;;2.83;1.80;;;9.80;99.90;;;;;;5030504;28;20229;-57
2022/12/28 13:47:03;;;;;;;6.07;1.83;;;9.80;99.90;;;;;;5039784;28;20245;-58